Time;durP1;ratioP1;P1;durP2;ratioP2;P2;SDS_P1;SDS_P2;PMS_P1;PMS_P2;Temp;Humidity;BMP_temperature;BMP_pressure;BME280_temperature;BME280_humidity;BME280_pressure;Samples;Min_cycle;Max_cycle;Signal;HPM_P1;HPM_P2
2024/01/21 00:03:42;;;;;;;1.77;1.37;;;;;;;;;;10497496;28;20572;-68
2024/01/21 00:08:43;;;;;;;1.87;1.77;;;;;;;;;;10497720;28;20230;-67
2024/01/21 00:13:43;;;;;;;2.27;1.40;;;;;;;;;;10498761;28;20275;-68
2024/01/21 00:18:43;;;;;;;2.10;1.50;;;;;;;;;;10498786;28;20263;-68
2024/01/21 00:23:46;;;;;;;1.27;1.17;;;;;;;;;;10496747;28;20191;-68
2024/01/21 00:28:46;;;;;;;1.53;1.30;;;;;;;;;;10493206;28;20717;-68
2024/01/21 00:33:46;;;;;;;4.60;1.40;;;;;;;;;;10496042;28;20187;-68
2024/01/21 00:38:46;;;;;;;1.60;1.50;;;;;;;;;;10496141;28;20222;-67
2024/01/21 00:43:46;;;;;;;1.80;1.33;;;;;;;;;;10496206;28;20196;-68
2024/01/21 00:48:47;;;;;;;1.40;1.30;;;;;;;;;;10495441;28;20611;-68
2024/01/21 00:53:47;;;;;;;1.20;1.10;;;;;;;;;;10495890;28;20271;-67
2024/01/21 00:58:47;;;;;;;1.43;1.30;;;;;;;;;;10495093;28;20994;-68
2024/01/21 01:03:47;;;;;;;1.20;1.10;;;;;;;;;;10494819;28;20555;-68
2024/01/21 01:08:47;;;;;;;1.60;1.20;;;;;;;;;;10494595;28;20215;-67
2024/01/21 01:13:47;;;;;;;1.20;1.20;;;;;;;;;;10495039;28;20184;-68
2024/01/21 01:18:49;;;;;;;1.77;1.27;;;;;;;;;;10494476;28;20589;-68
2024/01/21 01:23:49;;;;;;;1.27;1.10;;;;;;;;;;10493999;28;20201;-68
2024/01/21 01:28:50;;;;;;;1.17;1.10;;;;;;;;;;10494337;28;20628;-68
2024/01/21 01:33:51;;;;;;;1.40;1.10;;;;;;;;;;10493757;28;20726;-68
2024/01/21 01:38:51;;;;;;;1.23;1.13;;;;;;;;;;10493636;28;20212;-68
2024/01/21 01:43:51;;;;;;;1.47;1.40;;;;;;;;;;10493476;28;20191;-68
2024/01/21 01:48:51;;;;;;;1.40;1.30;;;;;;;;;;10492922;28;20259;-68
2024/01/21 01:53:51;;;;;;;1.17;1.10;;;;;;;;;;10493325;28;20237;-68
2024/01/21 01:58:53;;;;;;;0.90;0.90;;;;;;;;;;10492652;28;20220;-68
2024/01/21 02:03:53;;;;;;;1.00;1.00;;;;;;;;;;10492441;28;20811;-68
2024/01/21 02:08:53;;;;;;;3.47;0.90;;;;;;;;;;10492235;28;20219;-68
2024/01/21 02:13:53;;;;;;;1.40;1.07;;;;;;;;;;10492515;28;20202;-68
2024/01/21 02:18:54;;;;;;;0.83;0.83;;;;;;;;;;10491449;28;20445;-68
2024/01/21 02:23:54;;;;;;;0.70;0.70;;;;;;;;;;10492358;28;20207;-68
2024/01/21 02:28:54;;;;;;;0.70;0.70;;;;;;;;;;10491723;28;20646;-68
2024/01/21 02:33:54;;;;;;;0.90;0.90;;;;;;;;;;10491903;28;20206;-68
2024/01/21 02:38:54;;;;;;;0.77;0.77;;;;;;;;;;10491622;28;20286;-68
2024/01/21 02:43:55;;;;;;;0.80;0.80;;;;;;;;;;10491632;28;20841;-68
2024/01/21 02:48:55;;;;;;;0.80;0.80;;;;;;;;;;10491333;28;20243;-68
2024/01/21 02:53:55;;;;;;;0.90;0.90;;;;;;;;;;10491292;28;20469;-68
2024/01/21 02:58:55;;;;;;;0.70;0.70;;;;;;;;;;10491255;28;20595;-68
2024/01/21 03:03:55;;;;;;;0.80;0.80;;;;;;;;;;10491026;28;20286;-68
2024/01/21 03:08:55;;;;;;;0.93;0.93;;;;;;;;;;10490894;28;20594;-68
2024/01/21 03:13:56;;;;;;;0.83;0.80;;;;;;;;;;10490902;28;20261;-68
2024/01/21 03:18:56;;;;;;;0.70;0.70;;;;;;;;;;10490769;28;20238;-68
2024/01/21 03:23:56;;;;;;;0.70;0.70;;;;;;;;;;10490418;28;20207;-68
2024/01/21 03:28:57;;;;;;;1.80;0.70;;;;;;;;;;10494660;28;20223;-69
2024/01/21 03:33:57;;;;;;;0.70;0.70;;;;;;;;;;10498840;28;20187;-68
2024/01/21 03:38:57;;;;;;;0.73;0.70;;;;;;;;;;10498472;28;20222;-68
2024/01/21 03:43:57;;;;;;;0.80;0.80;;;;;;;;;;10498505;28;20196;-68
2024/01/21 03:48:57;;;;;;;0.80;0.80;;;;;;;;;;10497651;28;20226;-68
2024/01/21 03:53:58;;;;;;;1.03;0.70;;;;;;;;;;10498017;28;20453;-68
2024/01/21 03:58:58;;;;;;;0.70;0.70;;;;;;;;;;10497555;28;20215;-68
2024/01/21 04:03:58;;;;;;;0.77;0.77;;;;;;;;;;10497329;28;20441;-68
2024/01/21 04:08:58;;;;;;;0.80;0.80;;;;;;;;;;10497428;28;20914;-68
2024/01/21 04:13:58;;;;;;;0.70;0.70;;;;;;;;;;10497110;28;20212;-68
2024/01/21 04:18:58;;;;;;;0.80;0.80;;;;;;;;;;10497014;28;20211;-69
2024/01/21 04:23:59;;;;;;;0.70;0.70;;;;;;;;;;10496809;28;20236;-69
2024/01/21 04:28:59;;;;;;;0.70;0.70;;;;;;;;;;10497218;28;20219;-68
2024/01/21 04:33:59;;;;;;;0.80;0.80;;;;;;;;;;10496387;28;20202;-69
2024/01/21 04:38:59;;;;;;;0.70;0.70;;;;;;;;;;10495368;28;20228;-68
2024/01/21 04:44:00;;;;;;;0.80;0.80;;;;;;;;;;10495911;28;20226;-69
2024/01/21 04:49:01;;;;;;;1.17;1.07;;;;;;;;;;10495656;28;20242;-68
2024/01/21 04:54:01;;;;;;;0.70;0.70;;;;;;;;;;10496007;28;20619;-69
2024/01/21 04:59:01;;;;;;;0.80;0.80;;;;;;;;;;10495207;28;20206;-68
2024/01/21 05:04:01;;;;;;;0.60;0.60;;;;;;;;;;10495618;28;20672;-68
2024/01/21 05:09:01;;;;;;;0.70;0.70;;;;;;;;;;10494824;28;20478;-68
2024/01/21 05:14:01;;;;;;;0.70;0.70;;;;;;;;;;10495145;28;20194;-68
2024/01/21 05:19:02;;;;;;;0.80;0.77;;;;;;;;;;10494318;28;20299;-68
2024/01/21 05:24:02;;;;;;;0.80;0.80;;;;;;;;;;10494420;28;20198;-68
2024/01/21 05:29:02;;;;;;;0.87;0.87;;;;;;;;;;10494205;28;20219;-68
2024/01/21 05:34:02;;;;;;;0.80;0.80;;;;;;;;;;10493961;28;20190;-68
2024/01/21 05:39:03;;;;;;;0.70;0.70;;;;;;;;;;10494088;28;20705;-68
2024/01/21 05:44:03;;;;;;;0.80;0.80;;;;;;;;;;10493550;28;20183;-68
2024/01/21 05:49:04;;;;;;;1.13;0.80;;;;;;;;;;10493201;28;20639;-69
2024/01/21 05:54:04;;;;;;;0.90;0.90;;;;;;;;;;10493186;28;20875;-68
2024/01/21 05:59:04;;;;;;;0.90;0.90;;;;;;;;;;10492669;28;20211;-68
2024/01/21 06:04:04;;;;;;;1.50;1.00;;;;;;;;;;10492938;28;20191;-68
2024/01/21 06:09:05;;;;;;;1.17;1.07;;;;;;;;;;10492496;28;20214;-68
2024/01/21 06:14:05;;;;;;;1.10;1.00;;;;;;;;;;10492501;28;20768;-68
2024/01/21 06:19:05;;;;;;;3.33;1.40;;;;;;;;;;10492196;28;20337;-68
2024/01/21 06:24:06;;;;;;;1.00;1.00;;;;;;;;;;10490609;28;20187;-68
2024/01/21 06:29:07;;;;;;;3.47;1.20;;;;;;;;;;10491526;28;20484;-69
2024/01/21 06:34:07;;;;;;;2.20;1.53;;;;;;;;;;10491903;28;20438;-68
2024/01/21 06:39:07;;;;;;;0.93;0.93;;;;;;;;;;10491759;28;20204;-68
2024/01/21 06:44:07;;;;;;;3.20;1.73;;;;;;;;;;10491613;28;20206;-68
2024/01/21 06:49:07;;;;;;;2.27;1.73;;;;;;;;;;10491263;28;20227;-68
2024/01/21 06:54:08;;;;;;;1.50;1.40;;;;;;;;;;10491404;28;20671;-69
2024/01/21 06:59:08;;;;;;;2.03;1.52;;;;;;;;;;10491481;28;20582;-68
2024/01/21 07:04:09;;;;;;;1.73;1.63;;;;;;;;;;10490744;28;20236;-68
2024/01/21 07:09:10;;;;;;;1.50;1.40;;;;;;;;;;10490842;28;20277;-68
2024/01/21 07:14:10;;;;;;;1.57;1.47;;;;;;;;;;10491031;28;20202;-69
2024/01/21 07:19:10;;;;;;;2.63;1.63;;;;;;;;;;10490888;28;20261;-68
2024/01/21 07:24:10;;;;;;;1.70;1.20;;;;;;;;;;10490637;28;20191;-68
2024/01/21 07:29:10;;;;;;;1.37;1.27;;;;;;;;;;10490679;28;20565;-68
2024/01/21 07:34:10;;;;;;;1.53;1.43;;;;;;;;;;10490612;28;20195;-69
2024/01/21 07:39:11;;;;;;;3.10;1.53;;;;;;;;;;10490338;28;20298;-68
2024/01/21 07:44:11;;;;;;;3.57;1.73;;;;;;;;;;10490398;28;20203;-69
2024/01/21 07:49:12;;;;;;;8.47;4.30;;;;;;;;;;10490020;28;20239;-69
2024/01/21 07:54:12;;;;;;;2.30;1.50;;;;;;;;;;10490515;28;20449;-69
2024/01/21 07:59:12;;;;;;;1.83;1.70;;;;;;;;;;10489826;28;20215;-69
2024/01/21 08:04:12;;;;;;;1.40;1.27;;;;;;;;;;10490017;28;20244;-68
2024/01/21 08:09:13;;;;;;;8.23;5.03;;;;;;;;;;10489686;28;20722;-68
2024/01/21 08:14:13;;;;;;;3.23;1.73;;;;;;;;;;10491166;28;20252;-68
2024/01/21 08:19:15;;;;;;;1.40;1.30;;;;;;;;;;10497211;28;20215;-68
2024/01/21 08:24:15;;;;;;;2.37;1.50;;;;;;;;;;10496338;28;20184;-69
2024/01/21 08:29:15;;;;;;;2.03;1.40;;;;;;;;;;10496664;28;20215;-68
2024/01/21 08:34:15;;;;;;;1.53;1.40;;;;;;;;;;10496306;28;20264;-69
2024/01/21 08:39:15;;;;;;;1.87;1.27;;;;;;;;;;10496175;28;20329;-69
2024/01/21 08:44:15;;;;;;;3.17;1.40;;;;;;;;;;10496285;28;20194;-69
2024/01/21 08:49:16;;;;;;;3.67;1.23;;;;;;;;;;10495434;28;20368;-68
2024/01/21 08:54:16;;;;;;;3.53;1.47;;;;;;;;;;10493447;28;20190;-69
2024/01/21 08:59:16;;;;;;;2.20;1.63;;;;;;;;;;10495377;28;20308;-69
2024/01/21 09:04:17;;;;;;;46.27;17.60;;;;;;;;;;10495839;28;20191;-70
2024/01/21 09:09:17;;;;;;;5.47;2.97;;;;;;;;;;10494990;28;20213;-69
2024/01/21 09:14:18;;;;;;;5.00;2.10;;;;;;;;;;10494814;28;20440;-69
2024/01/21 09:19:19;;;;;;;3.30;2.53;;;;;;;;;;10494651;28;20218;-68
2024/01/21 09:24:21;;;;;;;1.07;1.07;;;;;;;;;;10493866;28;20187;-68
2024/01/21 09:29:21;;;;;;;1.77;1.20;;;;;;;;;;10494177;28;20714;-68
2024/01/21 09:34:21;;;;;;;1.20;1.00;;;;;;;;;;10494086;28;20278;-68
2024/01/21 09:39:22;;;;;;;3.40;2.67;;;;;;;;;;10493708;28;20454;-68
2024/01/21 09:44:26;;;;;;;7.17;3.03;;;;;;;;;;10493586;28;20198;-68
2024/01/21 09:49:26;;;;;;;2.00;1.60;;;;;;;;;;10493207;28;20270;-67
2024/01/21 09:54:26;;;;;;;1.87;1.50;;;;;;;;;;10488156;28;20286;-66
2024/01/21 09:59:27;;;;;;;1.40;1.30;;;;;;;;;;10489364;28;20215;-67
2024/01/21 10:04:27;;;;;;;1.83;1.30;;;;;;;;;;10489279;28;20195;-67
2024/01/21 10:09:29;;;;;;;1.23;1.13;;;;;;;;;;10487587;28;20215;-68
2024/01/21 10:14:31;;;;;;;1.67;1.57;;;;;;;;;;10489074;28;20675;-66
2024/01/21 10:19:33;;;;;;;1.63;1.27;;;;;;;;;;10488354;28;20272;-67
2024/01/21 10:24:36;;;;;;;1.30;1.20;;;;;;;;;;10505990;28;20188;-68
2024/01/21 10:29:37;;;;;;;5.83;1.40;;;;;;;;;;10493524;28;20778;-69
2024/01/21 10:34:43;;;;;;;1.73;1.63;;;;;;;;;;10489870;28;20187;-70
2024/01/21 10:39:44;;;;;;;3.93;1.80;;;;;;;;;;10489986;28;20211;-69
2024/01/21 10:44:45;;;;;;;2.30;1.67;;;;;;;;;;10490835;28;20218;-69
2024/01/21 10:49:48;;;;;;;2.03;1.83;;;;;;;;;;10488775;28;20718;-69
2024/01/21 10:54:49;;;;;;;3.43;1.90;;;;;;;;;;10490524;28;20191;-68
2024/01/21 10:59:49;;;;;;;1.83;1.70;;;;;;;;;;10490880;28;20293;-68
2024/01/21 11:04:49;;;;;;;1.50;1.40;;;;;;;;;;10490844;28;20717;-68
2024/01/21 11:09:49;;;;;;;1.30;1.20;;;;;;;;;;10491099;28;20225;-68
2024/01/21 11:14:50;;;;;;;2.20;1.20;;;;;;;;;;10490836;28;20189;-68
2024/01/21 11:19:51;;;;;;;1.10;1.03;;;;;;;;;;10490808;28;20595;-68
2024/01/21 11:24:53;;;;;;;1.33;1.23;;;;;;;;;;10490711;28;20735;-69
2024/01/21 11:29:54;;;;;;;1.47;1.33;;;;;;;;;;10490272;28;20215;-68
2024/01/21 11:34:55;;;;;;;1.60;1.50;;;;;;;;;;10490555;28;20290;-68
2024/01/21 11:39:55;;;;;;;3.77;1.83;;;;;;;;;;10490332;28;20301;-68
2024/01/21 11:45:05;;;;;;;1.20;1.10;;;;;;;;;;10490407;28;20301;-68
2024/01/21 11:50:06;;;;;;;1.40;1.27;;;;;;;;;;10494162;28;20281;-68
2024/01/21 11:55:06;;;;;;;3.23;1.50;;;;;;;;;;10498152;28;20210;-68
2024/01/21 12:00:07;;;;;;;2.47;1.30;;;;;;;;;;10497505;28;20214;-68
2024/01/21 12:05:16;;;;;;;2.47;1.57;;;;;;;;;;10497151;28;20234;-68
2024/01/21 12:10:16;;;;;;;1.60;1.50;;;;;;;;;;10497323;28;20218;-68
2024/01/21 12:15:16;;;;;;;1.33;1.23;;;;;;;;;;10497014;28;20566;-68
2024/01/21 12:20:17;;;;;;;1.63;1.53;;;;;;;;;;10494287;28;20211;-68
2024/01/21 12:25:18;;;;;;;16.13;7.97;;;;;;;;;;10496717;28;21060;-68
2024/01/21 12:30:18;;;;;;;1.40;1.30;;;;;;;;;;10496172;28;20303;-68
2024/01/21 12:35:18;;;;;;;1.87;1.77;;;;;;;;;;10496575;28;20629;-68
2024/01/21 12:40:18;;;;;;;1.27;1.17;;;;;;;;;;10495763;28;20244;-69
2024/01/21 12:45:18;;;;;;;1.70;1.60;;;;;;;;;;10503261;28;20194;-68
2024/01/21 12:50:19;;;;;;;3.70;2.07;;;;;;;;;;10498390;28;20234;-69
2024/01/21 12:55:20;;;;;;;1.57;1.47;;;;;;;;;;10494610;28;20182;-68
2024/01/21 13:00:20;;;;;;;6.53;1.83;;;;;;;;;;10494700;28;21010;-68
2024/01/21 13:05:20;;;;;;;2.63;1.90;;;;;;;;;;10495270;28;20196;-68
2024/01/21 13:10:20;;;;;;;1.73;1.60;;;;;;;;;;10494977;28;20508;-69
2024/01/21 13:15:20;;;;;;;3.37;2.00;;;;;;;;;;10494983;28;20184;-70
2024/01/21 13:20:21;;;;;;;4.65;2.20;;;;;;;;;;10494873;28;20209;-68
2024/01/21 13:25:23;;;;;;;2.83;1.30;;;;;;;;;;10494091;28;20190;-68
2024/01/21 13:35:42;;;;;;;2.53;2.07;;;;;;;;;;10494160;28;20221;-68
2024/01/21 13:40:42;;;;;;;3.70;3.20;;;;;;;;;;10493938;28;20668;-68
2024/01/21 13:45:43;;;;;;;3.67;1.87;;;;;;;;;;10493458;28;20201;-68
2024/01/21 13:50:43;;;;;;;3.93;2.87;;;;;;;;;;10492444;28;20724;-68
2024/01/21 13:55:45;;;;;;;2.13;1.80;;;;;;;;;;10492553;28;20194;-68
2024/01/21 14:00:45;;;;;;;2.20;1.93;;;;;;;;;;10492657;28;20461;-68
2024/01/21 14:05:45;;;;;;;4.13;2.60;;;;;;;;;;10489932;28;20648;-68
2024/01/21 14:10:46;;;;;;;2.70;2.10;;;;;;;;;;10492222;28;20223;-68
2024/01/21 14:15:48;;;;;;;4.77;2.37;;;;;;;;;;10492416;28;20196;-68
2024/01/21 14:20:48;;;;;;;3.13;2.20;;;;;;;;;;10491905;28;20210;-67
2024/01/21 14:25:48;;;;;;;4.73;2.77;;;;;;;;;;10491970;28;20195;-68
2024/01/21 14:30:49;;;;;;;4.20;3.80;;;;;;;;;;10491675;28;20223;-69
2024/01/21 14:35:49;;;;;;;2.47;1.80;;;;;;;;;;10491696;28;20192;-68
2024/01/21 14:40:50;;;;;;;3.97;3.13;;;;;;;;;;10491563;28;20225;-68
2024/01/21 14:45:50;;;;;;;6.93;3.15;;;;;;;;;;10491541;28;20199;-68
2024/01/21 14:50:53;;;;;;;4.07;2.90;;;;;;;;;;10491227;28;20312;-68
2024/01/21 14:55:53;;;;;;;32.03;11.70;;;;;;;;;;10490835;28;20187;-68
2024/01/21 15:00:53;;;;;;;25.53;10.70;;;;;;;;;;10491039;28;20322;-68
2024/01/21 15:05:53;;;;;;;19.63;9.60;;;;;;;;;;10490864;28;20240;-68
2024/01/21 15:10:55;;;;;;;11.83;5.47;;;;;;;;;;10490867;28;20241;-68
2024/01/21 15:15:55;;;;;;;13.93;7.27;;;;;;;;;;10490677;28;20210;-68
2024/01/21 15:20:55;;;;;;;5.20;3.53;;;;;;;;;;10491187;28;20210;-68
2024/01/21 15:25:59;;;;;;;5.63;3.70;;;;;;;;;;10495011;28;20207;-68
2024/01/21 15:31:00;;;;;;;6.97;3.40;;;;;;;;;;10498258;28;20469;-68
2024/01/21 15:36:00;;;;;;;6.73;3.60;;;;;;;;;;10499489;28;20191;-68
2024/01/21 15:41:00;;;;;;;7.17;3.67;;;;;;;;;;10499061;28;20187;-68
2024/01/21 15:46:00;;;;;;;52.87;18.60;;;;;;;;;;10498094;28;20187;-68
2024/01/21 15:51:00;;;;;;;32.70;16.00;;;;;;;;;;10497687;28;21097;-68
2024/01/21 15:56:01;;;;;;;20.13;10.47;;;;;;;;;;10497891;28;20218;-68
2024/01/21 16:01:01;;;;;;;12.43;6.80;;;;;;;;;;10497778;28;20183;-68
2024/01/21 16:06:01;;;;;;;5.77;3.83;;;;;;;;;;10497096;28;20282;-67
2024/01/21 16:11:04;;;;;;;5.77;4.20;;;;;;;;;;10497578;28;20215;-67
2024/01/21 16:16:05;;;;;;;5.63;3.73;;;;;;;;;;10496932;28;20184;-68
2024/01/21 16:21:07;;;;;;;10.18;5.47;;;;;;;;;;10497090;28;20199;-68
2024/01/21 16:26:07;;;;;;;9.60;5.53;;;;;;;;;;10495365;28;20650;-67
2024/01/21 16:31:07;;;;;;;6.10;3.70;;;;;;;;;;10496392;28;20200;-68
2024/01/21 16:36:07;;;;;;;7.27;3.87;;;;;;;;;;10495259;28;20191;-67
2024/01/21 16:41:07;;;;;;;14.23;6.93;;;;;;;;;;10496132;28;20184;-67
2024/01/21 16:46:08;;;;;;;8.50;4.03;;;;;;;;;;10496051;28;20540;-67
2024/01/21 16:51:09;;;;;;;5.70;3.43;;;;;;;;;;10495859;28;20470;-67
2024/01/21 16:56:09;;;;;;;6.87;3.87;;;;;;;;;;10497193;28;20188;-67
2024/01/21 17:01:10;;;;;;;8.33;5.00;;;;;;;;;;10496596;28;20592;-67
2024/01/21 17:06:10;;;;;;;5.83;2.77;;;;;;;;;;10495077;28;20754;-67
2024/01/21 17:11:22;;;;;;;5.40;4.13;;;;;;;;;;10496498;28;20211;-68
2024/01/21 17:16:22;;;;;;;6.57;4.03;;;;;;;;;;10498430;28;20297;-67
2024/01/21 17:21:23;;;;;;;8.43;4.23;;;;;;;;;;10500138;28;20694;-67
2024/01/21 17:26:23;;;;;;;3.33;2.13;;;;;;;;;;10501659;28;20229;-67
2024/01/21 17:31:23;;;;;;;3.33;2.47;;;;;;;;;;10493701;28;20226;-68
2024/01/21 17:36:26;;;;;;;7.57;2.87;;;;;;;;;;10493871;28;20218;-68
2024/01/21 17:41:27;;;;;;;4.13;2.00;;;;;;;;;;10493629;28;20211;-68
2024/01/21 17:46:27;;;;;;;3.53;1.87;;;;;;;;;;10493796;28;20723;-68
2024/01/21 17:51:27;;;;;;;3.53;2.00;;;;;;;;;;10497779;28;20243;-69
2024/01/21 17:56:29;;;;;;;4.07;2.40;;;;;;;;;;10492995;28;20211;-68
2024/01/21 18:01:29;;;;;;;3.40;1.83;;;;;;;;;;10493397;28;20187;-68
2024/01/21 18:06:31;;;;;;;1.70;1.60;;;;;;;;;;10499232;28;20584;-68
2024/01/21 18:11:31;;;;;;;1.70;1.50;;;;;;;;;;10492540;28;20641;-67
2024/01/21 18:16:31;;;;;;;2.67;1.50;;;;;;;;;;10492219;28;20214;-68
2024/01/21 18:21:32;;;;;;;6.13;3.80;;;;;;;;;;10498109;28;20232;-68
2024/01/21 18:26:32;;;;;;;9.03;4.63;;;;;;;;;;10496796;28;20221;-67
2024/01/21 18:31:33;;;;;;;29.20;10.13;;;;;;;;;;10494313;28;20770;-67
2024/01/21 18:36:33;;;;;;;7.70;3.40;;;;;;;;;;10491487;28;20211;-68
2024/01/21 18:41:34;;;;;;;3.07;2.07;;;;;;;;;;10491310;28;20198;-69
2024/01/21 18:46:34;;;;;;;1.93;1.70;;;;;;;;;;10499806;28;20280;-69
2024/01/21 18:51:34;;;;;;;4.03;1.63;;;;;;;;;;10500836;28;20489;-68
2024/01/21 18:56:34;;;;;;;4.27;1.67;;;;;;;;;;10495857;28;20208;-68
2024/01/21 19:01:34;;;;;;;3.73;1.23;;;;;;;;;;10490276;28;20290;-69
2024/01/21 19:06:35;;;;;;;2.55;1.70;;;;;;;;;;10490412;28;20219;-69
2024/01/21 19:11:35;;;;;;;3.43;2.43;;;;;;;;;;10490659;28;20304;-68
2024/01/21 19:16:35;;;;;;;4.90;2.63;;;;;;;;;;10495092;28;20206;-69
2024/01/21 19:21:36;;;;;;;3.13;2.30;;;;;;;;;;10493331;28;20191;-68
2024/01/21 19:26:37;;;;;;;4.30;2.50;;;;;;;;;;10498615;28;20222;-69
2024/01/21 19:31:37;;;;;;;2.20;2.00;;;;;;;;;;10493532;28;20639;-68
2024/01/21 19:36:38;;;;;;;2.80;1.87;;;;;;;;;;10489969;28;20220;-69
2024/01/21 19:41:38;;;;;;;3.43;1.47;;;;;;;;;;10490166;28;20225;-69
2024/01/21 19:46:38;;;;;;;2.57;1.80;;;;;;;;;;10489570;28;20832;-68
2024/01/21 19:51:39;;;;;;;2.37;2.07;;;;;;;;;;10489731;28;20720;-69
2024/01/21 19:56:41;;;;;;;2.43;1.80;;;;;;;;;;10489516;28;20297;-68
2024/01/21 20:01:44;;;;;;;1.70;1.60;;;;;;;;;;10489260;28;20196;-69
2024/01/21 20:06:44;;;;;;;3.23;2.07;;;;;;;;;;10489056;28;20216;-69
2024/01/21 20:11:44;;;;;;;16.10;5.67;;;;;;;;;;10494380;28;20215;-69
2024/01/21 20:16:44;;;;;;;3.57;1.80;;;;;;;;;;10496359;28;20256;-69
2024/01/21 20:21:47;;;;;;;2.20;2.00;;;;;;;;;;10496531;28;20201;-68
2024/01/21 20:26:47;;;;;;;2.00;1.53;;;;;;;;;;10493531;28;20215;-69
2024/01/21 20:31:47;;;;;;;2.72;2.10;;;;;;;;;;10496386;28;20269;-68
2024/01/21 20:36:48;;;;;;;3.03;2.20;;;;;;;;;;10495815;28;20689;-68
2024/01/21 20:41:48;;;;;;;2.60;1.53;;;;;;;;;;10497558;28;20278;-69
2024/01/21 20:46:48;;;;;;;4.53;2.10;;;;;;;;;;10496824;28;20234;-68
2024/01/21 20:51:48;;;;;;;1.83;1.37;;;;;;;;;;10495851;28;20727;-68
2024/01/21 20:56:48;;;;;;;2.17;1.67;;;;;;;;;;10495372;28;20207;-68
2024/01/21 21:01:48;;;;;;;3.40;2.00;;;;;;;;;;10501952;28;20266;-68
2024/01/21 21:06:49;;;;;;;4.60;1.97;;;;;;;;;;10505662;28;20199;-68
2024/01/21 21:11:49;;;;;;;2.80;1.93;;;;;;;;;;10504259;28;20217;-68
2024/01/21 21:16:49;;;;;;;4.43;1.80;;;;;;;;;;10505713;28;20199;-69
2024/01/21 21:21:51;;;;;;;2.43;1.90;;;;;;;;;;10504804;28;20198;-69
2024/01/21 21:26:51;;;;;;;3.83;2.43;;;;;;;;;;10503650;28;20309;-69
2024/01/21 21:31:52;;;;;;;3.10;1.70;;;;;;;;;;10506087;28;20237;-69
2024/01/21 21:36:52;;;;;;;2.20;2.00;;;;;;;;;;10509896;28;20213;-68
2024/01/21 21:41:52;;;;;;;2.17;1.97;;;;;;;;;;10494027;28;20198;-68
2024/01/21 21:46:52;;;;;;;2.30;1.70;;;;;;;;;;10493129;28;20235;-68
2024/01/21 21:51:52;;;;;;;1.73;1.60;;;;;;;;;;10493320;28;20279;-68
2024/01/21 21:56:53;;;;;;;3.03;2.30;;;;;;;;;;10492998;28;20207;-68
2024/01/21 22:01:53;;;;;;;3.23;2.20;;;;;;;;;;10492867;28;20195;-68
2024/01/21 22:06:53;;;;;;;3.53;1.80;;;;;;;;;;10492307;28;20226;-69
2024/01/21 22:11:53;;;;;;;3.60;1.87;;;;;;;;;;10492648;28;20606;-68
2024/01/21 22:16:53;;;;;;;9.83;1.80;;;;;;;;;;10492468;28;20222;-68
2024/01/21 22:21:53;;;;;;;2.43;1.63;;;;;;;;;;10492485;28;20191;-68
2024/01/21 22:26:54;;;;;;;4.40;2.03;;;;;;;;;;10492469;28;20578;-67
2024/01/21 22:31:54;;;;;;;4.07;1.60;;;;;;;;;;10491397;28;20223;-67
2024/01/21 22:36:54;;;;;;;2.07;1.70;;;;;;;;;;10491728;28;20211;-67
2024/01/21 22:41:55;;;;;;;3.30;1.70;;;;;;;;;;10491772;28;20199;-67
2024/01/21 22:46:55;;;;;;;2.43;1.93;;;;;;;;;;10491531;28;20243;-67
2024/01/21 22:51:55;;;;;;;5.53;1.90;;;;;;;;;;10491527;28;20397;-67
2024/01/21 22:56:55;;;;;;;2.47;1.70;;;;;;;;;;10491289;28;20211;-67
2024/01/21 23:01:56;;;;;;;5.77;1.93;;;;;;;;;;10491503;28;20264;-67
2024/01/21 23:06:56;;;;;;;2.47;1.50;;;;;;;;;;10490977;28;20215;-68
2024/01/21 23:11:57;;;;;;;2.43;1.70;;;;;;;;;;10491388;28;20709;-67
2024/01/21 23:16:57;;;;;;;2.17;1.87;;;;;;;;;;10490822;28;20324;-68
2024/01/21 23:21:57;;;;;;;2.50;1.60;;;;;;;;;;10491070;28;20194;-68
2024/01/21 23:26:57;;;;;;;2.57;2.07;;;;;;;;;;10490748;28;20195;-67
2024/01/21 23:31:58;;;;;;;1.37;1.10;;;;;;;;;;10490656;28;20203;-68
2024/01/21 23:36:58;;;;;;;2.37;1.90;;;;;;;;;;10490671;28;20728;-67
2024/01/21 23:41:58;;;;;;;4.37;2.07;;;;;;;;;;10490349;28;20557;-67
2024/01/21 23:46:58;;;;;;;2.13;1.93;;;;;;;;;;10496500;28;20234;-67
2024/01/21 23:51:58;;;;;;;3.10;1.70;;;;;;;;;;10498269;28;20215;-68
2024/01/21 23:56:58;;;;;;;3.27;2.30;;;;;;;;;;10498240;28;20628;-67
